Time;durP1;ratioP1;P1;durP2;ratioP2;P2;SDS_P1;SDS_P2;PMS_P1;PMS_P2;Temp;Humidity;BMP_temperature;BMP_pressure;BME280_temperature;BME280_humidity;BME280_pressure;Samples;Min_cycle;Max_cycle;Signal;HPM_P1;HPM_P2
2021/11/02 00:00:25;;;;;;;1.20;0.83;;;8.30;99.90;;;;;;4975041;28;20410;-75
2021/11/02 00:02:51;;;;;;;4.43;1.37;;;8.30;99.90;;;;;;4974825;28;20407;-76
2021/11/02 00:05:17;;;;;;;3.17;0.93;;;8.30;99.90;;;;;;4974888;28;20201;-75
2021/11/02 00:07:46;;;;;;;1.83;1.30;;;8.30;99.90;;;;;;4975077;28;20423;-76
2021/11/02 00:10:11;;;;;;;4.70;0.83;;;8.40;99.90;;;;;;4974858;28;20404;-75
2021/11/02 00:12:37;;;;;;;6.40;1.13;;;8.40;99.90;;;;;;4974654;28;20534;-75
2021/11/02 00:15:03;;;;;;;1.93;0.80;;;8.40;99.90;;;;;;4974859;28;20178;-75
2021/11/02 00:17:31;;;;;;;1.80;0.80;;;8.40;99.90;;;;;;4974640;28;20235;-75
2021/11/02 00:19:59;;;;;;;2.70;1.53;;;8.40;99.90;;;;;;4974964;28;20481;-75
2021/11/02 00:22:26;;;;;;;8.33;1.23;;;8.50;99.90;;;;;;4974216;28;20433;-75
2021/11/02 00:27:19;;;;;;;5.50;0.97;;;8.60;99.90;;;;;;4974612;28;20427;-75
2021/11/02 00:29:44;;;;;;;6.43;1.03;;;8.60;99.90;;;;;;4974693;28;20408;-75
2021/11/02 00:32:10;;;;;;;6.03;1.20;;;8.70;99.90;;;;;;4974017;28;20470;-74
2021/11/02 00:34:36;;;;;;;1.27;0.90;;;8.70;99.90;;;;;;4974581;28;20173;-75
2021/11/02 00:37:02;;;;;;;1.03;0.93;;;8.80;99.90;;;;;;4974345;28;20246;-75
2021/11/02 00:39:27;;;;;;;3.80;0.93;;;8.90;99.90;;;;;;4974244;28;20194;-75
2021/11/02 00:41:53;;;;;;;2.30;1.17;;;8.90;99.90;;;;;;4974258;28;20709;-76
2021/11/02 00:44:21;;;;;;;4.73;1.10;;;8.90;99.90;;;;;;4972722;28;20187;-75
2021/11/02 00:46:47;;;;;;;1.90;0.90;;;9.00;99.90;;;;;;4974476;28;20173;-76
2021/11/02 00:49:17;;;;;;;0.97;0.90;;;9.10;99.90;;;;;;4974049;28;20795;-75
2021/11/02 00:51:44;;;;;;;7.13;1.10;;;9.10;99.90;;;;;;4974253;28;20237;-75
2021/11/02 00:54:10;;;;;;;2.60;1.20;;;9.10;99.90;;;;;;4973784;28;20418;-75
2021/11/02 00:56:36;;;;;;;1.43;0.90;;;9.10;99.90;;;;;;4974113;28;20418;-76
2021/11/02 00:59:01;;;;;;;4.97;0.90;;;9.10;99.90;;;;;;4974005;28;20234;-75
2021/11/02 05:55:06;;;;;;;2.43;2.20;;;5.80;99.90;;;;;;4934656;29;20393;-76
2021/11/02 06:00:04;;;;;;;2.83;1.27;;;5.80;99.90;;;;;;4934579;29;20485;-76
2021/11/02 06:08:35;;;;;;;1.23;1.13;;;5.70;99.90;;;;;;4922670;29;20426;-74
2021/11/02 06:27:55;;;;;;;0.87;0.80;;;5.50;99.90;;;;;;4934891;29;20792;-73
2021/11/02 06:30:29;;;;;;;5.70;1.13;;;5.50;99.90;;;;;;4934097;29;20402;-73
2021/11/02 06:46:57;;;;;;;1.90;1.17;;;5.70;99.90;;;;;;4934009;29;20394;-73
2021/11/02 06:58:28;;;;;;;3.33;2.40;;;6.00;99.90;;;;;;4933833;29;20812;-73
2021/11/02 08:48:41;;;;;;;2.10;0.97;;;11.00;99.90;;;;;;4936008;29;20424;-71
2021/11/02 08:51:07;;;;;;;1.33;0.80;;;10.90;99.90;;;;;;4935648;29;20454;-72
2021/11/02 08:53:34;;;;;;;1.23;0.70;;;10.80;99.90;;;;;;4935276;29;20483;-72
2021/11/02 08:56:01;;;;;;;1.60;0.80;;;10.80;99.90;;;;;;4935604;29;20526;-72
2021/11/02 08:58:29;;;;;;;2.50;0.80;;;10.70;99.90;;;;;;4935240;29;21303;-71
2021/11/02 09:01:02;;;;;;;2.40;0.77;;;10.60;99.90;;;;;;4935436;29;20436;-71
2021/11/02 09:03:33;;;;;;;0.93;0.80;;;10.60;99.90;;;;;;4935082;29;20924;-71
2021/11/02 09:06:05;;;;;;;2.60;0.70;;;10.50;99.90;;;;;;4935573;29;20448;-71
2021/11/02 09:08:40;;;;;;;6.47;1.00;;;10.50;99.90;;;;;;4935235;29;20432;-71
2021/11/02 09:11:07;;;;;;;0.70;0.70;;;10.40;99.90;;;;;;4935228;29;20434;-71
2021/11/02 09:13:36;;;;;;;2.77;0.77;;;10.50;99.90;;;;;;4934988;29;20494;-72
2021/11/02 09:16:04;;;;;;;2.20;0.93;;;10.40;99.90;;;;;;4935363;29;20397;-71
2021/11/02 09:18:30;;;;;;;1.17;0.70;;;10.30;99.90;;;;;;4935192;29;20464;-72
2021/11/02 09:20:57;;;;;;;3.27;1.00;;;10.30;99.90;;;;;;4935099;29;20467;-72
2021/11/02 09:23:24;;;;;;;1.63;0.63;;;10.20;99.90;;;;;;4934704;29;20840;-72
2021/11/02 09:25:51;;;;;;;4.97;0.70;;;10.10;99.90;;;;;;4934436;29;20412;-72
2021/11/02 09:28:19;;;;;;;2.93;0.77;;;10.00;99.90;;;;;;4934993;29;20441;-71
2021/11/02 09:30:45;;;;;;;2.13;0.60;;;9.90;99.90;;;;;;4934889;29;20790;-72
2021/11/02 09:33:11;;;;;;;1.33;0.83;;;9.70;99.90;;;;;;4932245;29;20549;-73
2021/11/02 09:35:38;;;;;;;2.50;0.77;;;9.70;99.90;;;;;;4934388;29;21078;-73
2021/11/02 09:38:25;;;;;;;1.90;0.67;;;9.60;99.90;;;;;;4934334;29;20294;-73
2021/11/02 09:41:21;;;;;;;2.77;1.67;;;9.60;99.90;;;;;;4934226;29;20486;-73
2021/11/02 09:44:09;;;;;;;6.83;1.30;;;9.50;99.90;;;;;;4948456;28;20492;-74
2021/11/02 09:47:02;;;;;;;1.83;0.90;;;9.50;99.90;;;;;;4934371;28;20888;-71
2021/11/02 09:49:56;;;;;;;2.40;0.90;;;9.50;99.90;;;;;;4934583;29;20418;-73
2021/11/02 09:52:46;;;;;;;2.60;1.00;;;9.50;99.90;;;;;;4934155;29;20440;-72
2021/11/02 09:55:31;;;;;;;3.90;0.90;;;9.40;99.90;;;;;;4934466;28;20404;-73
2021/11/02 09:58:15;;;;;;;9.37;1.00;;;9.40;99.90;;;;;;4934596;29;20589;-72
2021/11/02 10:01:03;;;;;;;5.73;0.90;;;9.40;99.90;;;;;;4934534;29;20474;-72
2021/11/02 10:04:03;;;;;;;2.50;0.90;;;9.50;99.90;;;;;;4934176;29;20452;-72
2021/11/02 10:06:43;;;;;;;1.30;0.93;;;9.50;99.90;;;;;;4934254;29;20494;-72
2021/11/02 10:09:17;;;;;;;1.07;0.90;;;9.60;99.90;;;;;;4932893;29;21028;-72
2021/11/02 10:12:18;;;;;;;2.00;1.80;;;9.60;99.90;;;;;;4932885;29;20443;-72
2021/11/02 10:15:01;;;;;;;5.70;1.70;;;9.60;99.90;;;;;;4933413;29;20470;-72
2021/11/02 10:17:44;;;;;;;1.93;1.37;;;9.70;99.90;;;;;;4933534;29;20501;-72
2021/11/02 10:20:29;;;;;;;2.40;0.90;;;9.60;99.90;;;;;;4933744;29;20463;-71
2021/11/02 10:22:55;;;;;;;2.63;0.93;;;9.70;99.90;;;;;;4933658;29;20416;-73
2021/11/02 10:26:06;;;;;;;5.03;1.70;;;9.60;99.90;;;;;;4934205;29;20423;-71
2021/11/02 10:28:46;;;;;;;2.43;0.70;;;9.50;99.90;;;;;;4926117;29;20420;-72
2021/11/02 10:31:27;;;;;;;1.67;0.80;;;9.50;99.90;;;;;;4934282;29;20461;-71
2021/11/02 10:34:07;;;;;;;1.50;1.00;;;9.40;99.90;;;;;;4934206;29;20410;-71
2021/11/02 10:36:51;;;;;;;2.57;1.60;;;9.30;99.90;;;;;;4936504;29;20437;-73
2021/11/02 10:39:22;;;;;;;4.10;0.90;;;9.30;99.90;;;;;;4938652;29;20457;-71
2021/11/02 10:42:00;;;;;;;2.30;1.00;;;9.30;99.90;;;;;;4938166;29;20974;-71
2021/11/02 10:44:40;;;;;;;2.73;1.27;;;9.20;99.90;;;;;;4938060;29;20422;-71
2021/11/02 10:47:32;;;;;;;1.73;1.20;;;9.20;99.90;;;;;;4938099;29;20527;-70
2021/11/02 10:50:06;;;;;;;3.43;0.93;;;9.20;99.90;;;;;;4951901;29;20554;-71
2021/11/02 10:52:32;;;;;;;2.60;1.07;;;9.30;99.90;;;;;;4938171;29;20431;-70
2021/11/02 10:55:06;;;;;;;0.97;0.97;;;9.20;99.90;;;;;;4938766;29;20417;-71
2021/11/02 10:57:41;;;;;;;1.63;0.73;;;9.20;99.90;;;;;;4937836;29;20470;-71
2021/11/02 11:00:09;;;;;;;2.33;1.27;;;9.30;99.90;;;;;;4937814;29;20411;-71
2021/11/02 11:02:37;;;;;;;1.53;1.30;;;9.30;99.90;;;;;;4952018;29;20537;-71
2021/11/02 11:05:06;;;;;;;1.73;1.27;;;9.40;99.90;;;;;;4937739;29;20411;-72
2021/11/02 11:07:40;;;;;;;3.43;1.20;;;9.40;99.90;;;;;;4937485;29;20418;-72
2021/11/02 11:10:09;;;;;;;2.10;1.20;;;9.50;99.90;;;;;;4937646;29;20915;-71
2021/11/02 11:12:55;;;;;;;2.90;1.30;;;9.50;99.90;;;;;;4937330;29;20448;-71
2021/11/02 11:15:21;;;;;;;1.63;1.07;;;9.60;99.90;;;;;;4937510;29;20429;-72
2021/11/02 11:18:05;;;;;;;5.13;1.40;;;9.60;99.90;;;;;;4937389;29;20473;-71
2021/11/02 11:20:35;;;;;;;2.67;1.23;;;9.70;99.90;;;;;;4937292;29;20422;-70
2021/11/02 11:23:07;;;;;;;4.20;2.57;;;9.70;99.90;;;;;;4937237;29;20414;-71
2021/11/02 11:25:51;;;;;;;2.30;1.43;;;9.70;99.90;;;;;;4937606;29;20910;-72
2021/11/02 11:28:19;;;;;;;4.20;1.60;;;9.80;99.90;;;;;;4937156;29;20434;-72
2021/11/02 11:30:45;;;;;;;4.23;1.20;;;9.80;99.90;;;;;;4937049;29;20420;-71
2021/11/02 11:33:20;;;;;;;3.23;1.50;;;9.90;99.90;;;;;;4951532;29;20436;-71
2021/11/02 11:35:47;;;;;;;1.20;1.03;;;9.90;99.90;;;;;;4937070;29;20424;-71
2021/11/02 11:38:14;;;;;;;2.13;1.20;;;9.90;99.90;;;;;;4936921;29;20462;-72
2021/11/02 11:40:42;;;;;;;1.10;1.00;;;10.00;99.90;;;;;;4936934;29;21037;-71
2021/11/02 11:43:10;;;;;;;2.10;0.80;;;10.00;99.90;;;;;;4936806;29;20459;-70
2021/11/02 11:45:39;;;;;;;2.43;1.07;;;10.10;99.90;;;;;;4936756;29;20455;-72
2021/11/02 11:48:12;;;;;;;2.40;1.00;;;10.30;99.90;;;;;;4936066;29;20504;-71
2021/11/02 11:50:41;;;;;;;1.70;0.90;;;10.40;99.90;;;;;;4951398;29;20530;-71
2021/11/02 11:53:08;;;;;;;1.77;1.00;;;10.60;99.90;;;;;;4936643;29;20920;-72
2021/11/02 11:55:37;;;;;;;0.90;0.70;;;10.80;99.90;;;;;;4936595;29;20431;-71
2021/11/02 11:58:12;;;;;;;3.73;0.90;;;10.90;99.90;;;;;;4936684;29;20472;-71
2021/11/02 12:00:44;;;;;;;3.20;0.90;;;11.10;99.90;;;;;;4936664;29;20424;-71
2021/11/02 12:03:35;;;;;;;2.10;0.97;;;11.10;99.90;;;;;;4936422;29;20495;-72
2021/11/02 12:06:08;;;;;;;0.90;0.63;;;11.20;99.90;;;;;;4936595;29;20417;-72
2021/11/02 12:09:14;;;;;;;1.10;1.00;;;11.10;99.90;;;;;;4937037;29;20447;-71
2021/11/02 12:11:41;;;;;;;1.73;0.90;;;11.10;99.90;;;;;;4936439;29;20940;-71
2021/11/02 12:14:10;;;;;;;2.00;0.70;;;11.20;99.90;;;;;;4936166;29;20475;-73
2021/11/02 12:16:38;;;;;;;2.90;0.80;;;11.20;99.90;;;;;;4936318;29;20448;-72
2021/11/02 12:19:10;;;;;;;1.63;0.50;;;11.20;99.90;;;;;;4936499;29;20530;-71
2021/11/02 12:21:37;;;;;;;0.57;0.57;;;11.10;99.90;;;;;;4936464;29;20447;-71
2021/11/02 12:24:12;;;;;;;0.60;0.50;;;11.00;99.90;;;;;;4936111;29;20415;-72
2021/11/02 12:26:43;;;;;;;1.03;0.60;;;10.90;99.90;;;;;;4936276;29;20489;-72
2021/11/02 12:29:11;;;;;;;0.70;0.50;;;10.60;99.90;;;;;;4936055;29;20443;-72
2021/11/02 12:31:38;;;;;;;0.50;0.50;;;10.60;99.90;;;;;;4935912;29;20789;-72
2021/11/02 12:34:15;;;;;;;1.17;0.70;;;10.50;99.90;;;;;;4935890;29;20424;-72
2021/11/02 12:36:50;;;;;;;0.50;0.50;;;10.40;99.90;;;;;;4936094;29;20834;-74
2021/11/02 12:39:20;;;;;;;0.80;0.50;;;10.40;99.90;;;;;;4935867;29;20451;-72
2021/11/02 12:41:53;;;;;;;1.03;0.50;;;10.40;99.90;;;;;;4935792;29;20469;-72
2021/11/02 12:44:24;;;;;;;0.53;0.50;;;10.50;99.90;;;;;;4935630;29;20445;-73
2021/11/02 12:46:49;;;;;;;0.60;0.60;;;10.60;99.90;;;;;;4935849;29;20423;-73
2021/11/02 12:49:44;;;;;;;1.17;0.60;;;10.60;99.90;;;;;;4950392;29;20431;-72
2021/11/02 12:52:12;;;;;;;0.50;0.50;;;10.60;99.90;;;;;;4934911;29;20213;-71
2021/11/02 12:54:40;;;;;;;0.50;0.50;;;10.70;99.90;;;;;;4935874;29;20424;-72
2021/11/02 12:57:06;;;;;;;0.50;0.40;;;10.70;99.90;;;;;;4935677;29;20914;-73
2021/11/02 12:59:37;;;;;;;0.67;0.40;;;10.80;99.90;;;;;;4935467;29;20404;-72
2021/11/02 13:02:16;;;;;;;0.60;0.40;;;10.80;99.90;;;;;;4935487;29;20224;-72
2021/11/02 13:04:47;;;;;;;1.33;0.40;;;11.00;99.90;;;;;;4935601;29;20412;-72
2021/11/02 13:07:14;;;;;;;0.50;0.50;;;11.10;99.90;;;;;;4935375;29;20427;-71
2021/11/02 13:09:39;;;;;;;0.50;0.40;;;11.20;99.90;;;;;;4935578;29;20483;-72
2021/11/02 13:12:08;;;;;;;0.60;0.40;;;11.40;99.90;;;;;;4949893;29;20530;-70
2021/11/02 13:14:36;;;;;;;0.60;0.50;;;11.50;99.90;;;;;;4935437;29;20188;-72
2021/11/02 13:17:05;;;;;;;1.13;0.40;;;11.50;99.90;;;;;;4935377;29;20412;-72
2021/11/02 13:19:36;;;;;;;0.50;0.40;;;11.50;99.90;;;;;;4935078;29;20470;-72
2021/11/02 13:22:17;;;;;;;0.40;0.30;;;11.40;99.90;;;;;;4935055;29;20965;-71
2021/11/02 13:25:10;;;;;;;1.13;0.40;;;11.30;99.90;;;;;;4935250;29;20426;-72
2021/11/02 13:27:35;;;;;;;0.40;0.40;;;11.10;99.90;;;;;;4935205;29;20448;-73
2021/11/02 13:30:35;;;;;;;0.90;0.90;;;10.90;99.90;;;;;;4935122;29;20529;-72
2021/11/02 13:33:08;;;;;;;0.40;0.40;;;10.80;99.90;;;;;;4934744;29;20202;-72
2021/11/02 13:35:38;;;;;;;0.60;0.60;;;10.80;99.90;;;;;;4934908;29;20420;-71
2021/11/02 13:38:34;;;;;;;0.83;0.83;;;10.70;99.90;;;;;;4934999;29;20490;-71
2021/11/02 13:41:21;;;;;;;0.50;0.43;;;10.70;99.90;;;;;;4935004;29;20520;-72
2021/11/02 13:44:04;;;;;;;0.73;0.40;;;10.70;99.90;;;;;;4934702;29;20424;-72
2021/11/02 13:46:34;;;;;;;0.60;0.50;;;10.60;99.90;;;;;;4935814;29;20441;-73
2021/11/02 13:49:00;;;;;;;1.13;0.40;;;10.60;99.90;;;;;;4934746;29;20423;-72
2021/11/02 13:51:26;;;;;;;1.23;0.40;;;10.60;99.90;;;;;;4934317;29;20450;-72
2021/11/02 13:53:52;;;;;;;0.63;0.43;;;10.60;99.90;;;;;;4934597;29;20428;-72
2021/11/02 13:56:27;;;;;;;0.57;0.40;;;10.60;99.90;;;;;;4934468;29;20391;-73
2021/11/02 13:58:55;;;;;;;0.50;0.50;;;10.50;99.90;;;;;;4934579;29;20441;-71
2021/11/02 14:01:31;;;;;;;1.37;0.60;;;10.50;99.90;;;;;;4934151;29;20472;-72
2021/11/02 14:04:15;;;;;;;0.40;0.40;;;10.50;99.90;;;;;;4934379;29;20407;-72
2021/11/02 14:06:49;;;;;;;0.50;0.50;;;10.50;99.90;;;;;;4934542;29;20408;-72
2021/11/02 14:09:25;;;;;;;0.47;0.43;;;10.50;99.90;;;;;;4934258;29;20424;-72
2021/11/02 14:11:50;;;;;;;0.50;0.50;;;10.60;99.90;;;;;;4933795;29;20440;-73
2021/11/02 14:14:30;;;;;;;0.40;0.40;;;10.80;99.90;;;;;;4934031;29;20471;-72
2021/11/02 14:16:57;;;;;;;0.53;0.50;;;11.00;99.90;;;;;;4934314;29;20173;-71
2021/11/02 14:19:38;;;;;;;0.50;0.50;;;11.00;99.90;;;;;;4934205;29;20988;-72
2021/11/02 14:22:09;;;;;;;0.40;0.40;;;11.10;99.90;;;;;;4934055;29;20431;-72
2021/11/02 14:24:44;;;;;;;1.47;0.40;;;11.10;99.90;;;;;;4934201;29;20410;-72
2021/11/02 14:27:21;;;;;;;1.30;1.20;;;11.10;99.90;;;;;;4934159;29;20750;-71
2021/11/02 14:29:49;;;;;;;0.93;0.90;;;11.00;99.90;;;;;;4934221;29;20565;-72
2021/11/02 14:32:36;;;;;;;0.47;0.40;;;11.10;99.90;;;;;;4933437;29;20459;-71
2021/11/02 14:35:04;;;;;;;0.50;0.40;;;10.90;99.90;;;;;;4934228;29;20825;-72
2021/11/02 14:37:49;;;;;;;0.60;0.40;;;10.90;99.90;;;;;;4933797;29;20466;-72
2021/11/02 14:40:30;;;;;;;0.40;0.40;;;10.80;99.90;;;;;;4948751;29;20466;-71
2021/11/02 14:42:57;;;;;;;1.17;0.40;;;10.80;99.90;;;;;;4933767;29;20435;-71
2021/11/02 14:45:42;;;;;;;0.40;0.40;;;10.70;99.90;;;;;;4933835;29;20458;-71
2021/11/02 14:48:26;;;;;;;0.40;0.40;;;10.70;99.90;;;;;;4933954;29;20426;-71
2021/11/02 14:50:59;;;;;;;0.40;0.40;;;10.70;99.90;;;;;;4933891;29;20502;-71
2021/11/02 14:53:24;;;;;;;0.53;0.40;;;10.60;99.90;;;;;;4933631;29;20447;-72
2021/11/02 14:55:56;;;;;;;0.60;0.40;;;10.50;99.90;;;;;;4934071;29;20925;-71
2021/11/02 14:58:39;;;;;;;0.40;0.40;;;10.50;99.90;;;;;;4933720;29;20294;-72
2021/11/02 15:01:16;;;;;;;0.40;0.40;;;10.60;99.90;;;;;;4933960;29;20439;-71
2021/11/02 15:03:58;;;;;;;0.43;0.40;;;10.60;99.90;;;;;;4933801;29;20414;-72
2021/11/02 15:06:28;;;;;;;0.50;0.50;;;10.50;99.90;;;;;;4933905;29;20499;-70
2021/11/02 15:08:55;;;;;;;0.40;0.40;;;10.40;99.90;;;;;;4933882;29;20422;-71
2021/11/02 15:11:20;;;;;;;0.40;0.40;;;10.40;99.90;;;;;;4933908;29;20431;-71
2021/11/02 15:13:58;;;;;;;0.70;0.43;;;10.30;99.90;;;;;;4948206;29;20435;-72
2021/11/02 15:16:25;;;;;;;0.50;0.50;;;10.20;99.90;;;;;;4933625;29;20562;-72
2021/11/02 15:18:58;;;;;;;0.50;0.50;;;10.10;99.90;;;;;;4934153;29;20445;-72
2021/11/02 15:21:41;;;;;;;0.60;0.50;;;10.10;99.90;;;;;;4933668;29;20892;-71
2021/11/02 15:24:23;;;;;;;0.50;0.50;;;10.00;99.90;;;;;;4936299;29;20416;-71
2021/11/02 15:27:05;;;;;;;0.50;0.47;;;9.90;99.90;;;;;;4937287;29;20468;-71
2021/11/02 15:29:34;;;;;;;0.60;0.50;;;9.80;99.90;;;;;;4937072;29;20425;-72
2021/11/02 15:32:12;;;;;;;0.50;0.50;;;9.80;99.90;;;;;;4937991;29;20438;-69
2021/11/02 15:34:56;;;;;;;0.90;0.70;;;9.70;99.90;;;;;;4937260;29;20452;-71
2021/11/02 15:37:26;;;;;;;0.90;0.50;;;9.50;99.90;;;;;;4937001;29;20413;-72
2021/11/02 15:40:06;;;;;;;1.93;0.60;;;9.50;99.90;;;;;;4937052;29;20440;-73
2021/11/02 15:42:37;;;;;;;0.60;0.60;;;9.50;99.90;;;;;;4936549;29;20448;-71
2021/11/02 15:45:05;;;;;;;2.37;0.80;;;9.40;99.90;;;;;;4937027;29;20501;-71
2021/11/02 15:47:33;;;;;;;0.50;0.50;;;9.30;99.90;;;;;;4936823;28;20429;-72
2021/11/02 15:50:10;;;;;;;2.17;0.90;;;9.20;99.90;;;;;;4936876;29;20414;-71
2021/11/02 15:52:38;;;;;;;3.40;3.10;;;9.10;99.90;;;;;;4936520;29;20426;-72
2021/11/02 15:55:11;;;;;;;1.43;1.33;;;9.10;99.90;;;;;;4936816;29;20453;-71
2021/11/02 15:57:47;;;;;;;0.60;0.60;;;9.00;99.90;;;;;;4936685;29;20465;-72
2021/11/02 16:00:17;;;;;;;1.20;0.80;;;9.00;99.90;;;;;;4936660;29;20426;-71
2021/11/02 16:02:46;;;;;;;1.47;0.67;;;8.90;99.90;;;;;;4936341;29;20408;-71
2021/11/02 16:05:18;;;;;;;0.40;0.40;;;8.90;99.90;;;;;;4936314;29;20387;-72
2021/11/02 16:07:44;;;;;;;0.60;0.47;;;8.80;99.90;;;;;;4951439;29;20498;-72
2021/11/02 16:10:10;;;;;;;0.73;0.47;;;8.80;99.90;;;;;;4936557;29;20414;-70
2021/11/02 16:12:40;;;;;;;1.47;0.50;;;8.70;99.90;;;;;;4928203;28;20484;-73
2021/11/02 16:15:10;;;;;;;0.50;0.50;;;8.70;99.90;;;;;;4930278;29;20492;-73
2021/11/02 16:17:46;;;;;;;1.70;0.40;;;8.60;99.90;;;;;;4935794;29;20484;-72
2021/11/02 16:20:32;;;;;;;1.83;0.50;;;8.60;99.90;;;;;;4935691;29;20471;-71
2021/11/02 16:23:08;;;;;;;2.50;0.70;;;8.60;99.90;;;;;;4934880;29;20561;-73
2021/11/02 16:25:39;;;;;;;0.50;0.50;;;8.60;99.90;;;;;;4935861;29;20484;-75
2021/11/02 16:28:12;;;;;;;1.03;0.50;;;8.50;99.90;;;;;;4924197;29;20523;-76
2021/11/02 16:30:48;;;;;;;2.30;0.50;;;8.40;99.90;;;;;;4950387;28;20463;-76
2021/11/02 16:33:15;;;;;;;0.80;0.60;;;8.40;99.90;;;;;;4934852;29;20474;-75
2021/11/02 16:35:51;;;;;;;0.90;0.60;;;8.40;99.90;;;;;;4935333;29;20466;-75
2021/11/02 16:38:37;;;;;;;0.47;0.47;;;8.40;99.90;;;;;;4935131;28;20490;-76
2021/11/02 16:41:05;;;;;;;2.57;1.03;;;8.40;99.90;;;;;;4935490;29;20507;-75
2021/11/02 16:43:34;;;;;;;0.70;0.50;;;8.40;99.90;;;;;;4934937;29;20540;-75
2021/11/02 16:46:08;;;;;;;0.50;0.40;;;8.50;99.90;;;;;;4935061;29;20515;-75
2021/11/02 16:48:38;;;;;;;0.70;0.70;;;8.50;99.90;;;;;;4950019;28;20467;-75
2021/11/02 16:51:04;;;;;;;1.03;0.73;;;8.50;99.90;;;;;;4935274;29;20449;-74
2021/11/02 16:53:30;;;;;;;0.97;0.63;;;8.50;99.90;;;;;;4934759;28;20475;-75
2021/11/02 16:56:18;;;;;;;2.00;0.90;;;8.50;99.90;;;;;;4935529;29;20542;-75
2021/11/02 16:58:54;;;;;;;0.70;0.70;;;8.50;99.90;;;;;;4935101;29;20218;-75
2021/11/02 17:01:31;;;;;;;2.23;1.00;;;8.40;99.90;;;;;;4934767;29;20487;-74
2021/11/02 17:04:08;;;;;;;0.60;0.57;;;8.30;99.90;;;;;;4935142;29;20529;-75
2021/11/02 17:06:34;;;;;;;0.60;0.50;;;8.20;99.90;;;;;;4934643;29;20801;-74
2021/11/02 17:09:02;;;;;;;0.60;0.60;;;8.10;99.90;;;;;;4935060;29;20515;-75
2021/11/02 17:11:29;;;;;;;0.50;0.50;;;8.10;99.90;;;;;;4934785;29;20223;-76
2021/11/02 17:13:55;;;;;;;1.23;0.70;;;8.00;99.90;;;;;;4934720;29;20460;-76
2021/11/02 17:16:26;;;;;;;0.60;0.60;;;8.00;99.90;;;;;;4934675;28;20487;-76
2021/11/02 17:19:04;;;;;;;1.00;0.80;;;8.00;99.90;;;;;;4934443;29;21034;-74
2021/11/02 17:21:33;;;;;;;4.00;1.17;;;8.00;99.90;;;;;;4933596;28;20456;-74
2021/11/02 17:24:00;;;;;;;0.80;0.80;;;7.90;99.90;;;;;;4934129;29;20447;-74
2021/11/02 17:26:27;;;;;;;3.07;0.90;;;7.90;99.90;;;;;;4934588;29;20461;-74
2021/11/02 17:28:54;;;;;;;2.80;0.77;;;7.80;99.90;;;;;;4934740;29;21012;-74
2021/11/02 17:31:23;;;;;;;0.90;0.70;;;7.70;99.90;;;;;;4934321;29;20932;-74
2021/11/02 17:33:49;;;;;;;1.50;1.10;;;7.70;99.90;;;;;;4934121;28;20484;-74
2021/11/02 17:36:17;;;;;;;0.93;0.93;;;7.60;99.90;;;;;;4934401;29;20450;-74
2021/11/02 17:38:45;;;;;;;1.00;0.60;;;7.50;99.90;;;;;;4933672;28;20485;-74
2021/11/02 17:41:11;;;;;;;2.20;0.60;;;7.50;99.90;;;;;;4934276;29;20543;-74
2021/11/02 17:43:42;;;;;;;2.50;0.67;;;7.40;99.90;;;;;;4931606;29;20470;-74
2021/11/02 17:46:10;;;;;;;0.50;0.50;;;7.40;99.90;;;;;;4933368;29;20462;-73
2021/11/02 17:48:36;;;;;;;2.00;0.60;;;7.30;99.90;;;;;;4933911;29;20489;-74
2021/11/02 17:51:02;;;;;;;0.90;0.50;;;7.30;99.90;;;;;;4933566;29;20460;-74
2021/11/02 17:53:28;;;;;;;1.27;0.70;;;7.20;99.90;;;;;;4933779;29;20474;-74
2021/11/02 17:55:57;;;;;;;1.50;0.63;;;7.10;99.90;;;;;;4934071;29;20436;-73
2021/11/02 17:58:26;;;;;;;3.37;2.50;;;7.00;99.90;;;;;;4933487;28;20466;-74
2021/11/02 18:00:59;;;;;;;16.00;10.30;;;7.00;99.90;;;;;;4933892;29;20460;-74
2021/11/02 18:03:27;;;;;;;4.33;3.27;;;6.90;99.90;;;;;;4933549;29;20474;-74
2021/11/02 18:05:57;;;;;;;2.70;2.50;;;6.90;99.90;;;;;;4934225;29;20455;-74
2021/11/02 18:08:23;;;;;;;1.80;1.70;;;6.80;99.90;;;;;;4933768;28;20470;-74
2021/11/02 18:10:50;;;;;;;1.10;1.00;;;6.70;99.90;;;;;;4933901;29;20447;-74
2021/11/02 18:13:15;;;;;;;1.00;1.00;;;6.70;99.90;;;;;;4932956;29;20468;-74
2021/11/02 18:15:41;;;;;;;1.03;1.03;;;6.70;99.90;;;;;;4933923;29;20433;-74
2021/11/02 18:18:08;;;;;;;0.80;0.80;;;6.60;99.90;;;;;;4933610;29;20232;-75
2021/11/02 18:20:35;;;;;;;1.87;1.43;;;6.60;99.90;;;;;;4933787;29;20220;-71
2021/11/02 18:23:02;;;;;;;1.87;1.10;;;6.70;99.90;;;;;;4933099;28;20587;-74
2021/11/02 18:25:28;;;;;;;10.00;1.40;;;6.60;99.90;;;;;;4933651;29;20445;-74
2021/11/02 18:27:59;;;;;;;2.63;0.97;;;6.70;99.90;;;;;;4933532;29;21010;-74
2021/11/02 18:30:26;;;;;;;0.90;0.90;;;6.70;99.90;;;;;;4933808;29;20214;-74
2021/11/02 18:32:53;;;;;;;1.90;1.37;;;6.80;99.90;;;;;;4932668;29;20446;-75
2021/11/02 18:35:19;;;;;;;1.77;1.33;;;6.90;99.90;;;;;;4933742;29;20911;-74
2021/11/02 18:37:47;;;;;;;1.87;1.77;;;7.00;99.90;;;;;;4933550;29;20598;-74
2021/11/02 18:40:18;;;;;;;3.57;1.60;;;7.00;99.90;;;;;;4934461;29;20212;-74
2021/11/02 18:42:52;;;;;;;1.63;1.53;;;7.00;99.90;;;;;;4943603;28;20578;-74
2021/11/02 18:45:21;;;;;;;6.07;2.00;;;7.00;99.90;;;;;;4933122;29;20436;-74
2021/11/02 18:47:48;;;;;;;6.97;2.43;;;7.00;99.90;;;;;;4933478;29;20468;-74
2021/11/02 18:50:14;;;;;;;2.93;1.30;;;7.10;99.90;;;;;;4933791;29;20956;-74
2021/11/02 18:52:41;;;;;;;1.60;0.93;;;7.10;99.90;;;;;;4932992;29;20477;-74
2021/11/02 18:55:07;;;;;;;1.60;1.50;;;7.10;99.90;;;;;;4935939;29;20446;-74
2021/11/02 18:57:40;;;;;;;1.47;1.37;;;7.20;99.90;;;;;;4935346;29;20482;-74
2021/11/02 19:00:09;;;;;;;3.10;1.80;;;7.20;99.90;;;;;;4937668;29;21023;-74
2021/11/02 19:02:37;;;;;;;2.07;1.97;;;7.10;99.90;;;;;;4936687;29;20477;-73
2021/11/02 19:05:03;;;;;;;2.10;2.00;;;7.10;99.90;;;;;;4937345;29;20428;-74
2021/11/02 19:07:29;;;;;;;2.40;2.20;;;7.00;99.90;;;;;;4936642;28;20989;-74
2021/11/02 19:09:54;;;;;;;5.47;3.30;;;6.90;99.90;;;;;;4937067;29;20461;-74
2021/11/02 19:12:20;;;;;;;2.63;1.90;;;6.90;99.90;;;;;;4936626;29;20293;-73
2021/11/02 19:14:46;;;;;;;2.20;1.30;;;6.90;99.90;;;;;;4937365;29;20744;-74
2021/11/02 19:17:13;;;;;;;1.33;1.23;;;6.90;99.90;;;;;;4937006;28;20220;-74
2021/11/02 19:19:38;;;;;;;1.80;1.70;;;7.00;99.90;;;;;;4936904;29;20499;-74
2021/11/02 19:22:04;;;;;;;2.73;1.10;;;7.00;99.90;;;;;;4936831;29;20453;-74
2021/11/02 19:24:29;;;;;;;2.80;1.73;;;7.00;99.90;;;;;;4936650;29;20261;-74
2021/11/02 19:26:55;;;;;;;1.27;0.77;;;7.10;99.90;;;;;;4936684;29;20220;-74
2021/11/02 19:29:20;;;;;;;2.17;1.00;;;7.20;99.90;;;;;;4936581;29;20232;-73
2021/11/02 19:31:46;;;;;;;0.80;0.80;;;7.30;99.90;;;;;;4940486;29;20216;-74
2021/11/02 19:34:14;;;;;;;0.80;0.80;;;7.30;99.90;;;;;;4944517;28;21032;-73
2021/11/02 19:36:43;;;;;;;0.60;0.60;;;7.40;99.90;;;;;;4951896;28;20222;-73
2021/11/02 19:39:09;;;;;;;1.70;0.87;;;7.50;99.90;;;;;;4935853;28;20993;-73
2021/11/02 19:41:35;;;;;;;0.63;0.60;;;7.60;99.90;;;;;;4936838;29;20460;-73
2021/11/02 19:44:01;;;;;;;2.30;0.60;;;7.70;99.90;;;;;;4936295;29;20466;-74
2021/11/02 19:46:26;;;;;;;0.60;0.60;;;7.70;99.90;;;;;;4936521;29;20910;-74
2021/11/02 19:48:52;;;;;;;1.43;0.70;;;7.70;99.90;;;;;;4936065;29;20292;-73
2021/11/02 19:51:17;;;;;;;0.77;0.73;;;7.80;99.90;;;;;;4936339;29;20214;-72
2021/11/02 19:53:46;;;;;;;0.97;0.90;;;7.80;99.90;;;;;;4936169;28;20283;-73
2021/11/02 19:56:13;;;;;;;1.70;0.90;;;7.70;99.90;;;;;;4936181;29;20607;-73
2021/11/02 19:58:39;;;;;;;1.70;1.00;;;7.70;99.90;;;;;;4936171;29;20498;-74
2021/11/02 20:01:07;;;;;;;0.80;0.80;;;7.70;99.90;;;;;;4935726;29;20558;-73
2021/11/02 20:03:32;;;;;;;0.90;0.73;;;7.60;99.90;;;;;;4935732;28;20509;-74
2021/11/02 20:06:01;;;;;;;3.07;1.07;;;7.70;99.90;;;;;;4936251;29;20465;-74
2021/11/02 20:08:41;;;;;;;2.93;0.90;;;7.60;99.90;;;;;;4934851;28;20255;-74
2021/11/02 20:11:27;;;;;;;5.13;1.20;;;7.60;99.90;;;;;;4936139;29;20447;-74
2021/11/02 20:13:56;;;;;;;1.20;1.00;;;7.60;99.90;;;;;;4925012;29;20459;-74
2021/11/02 20:16:23;;;;;;;1.27;0.80;;;7.70;99.90;;;;;;4935825;29;20465;-74
2021/11/02 20:18:58;;;;;;;0.70;0.70;;;7.70;99.90;;;;;;4935937;29;20849;-74
2021/11/02 20:21:26;;;;;;;4.80;1.00;;;7.70;99.90;;;;;;4935681;29;20454;-73
2021/11/02 20:23:53;;;;;;;3.33;1.20;;;7.70;99.90;;;;;;4935024;29;20576;-73
2021/11/02 20:26:23;;;;;;;1.40;1.07;;;7.60;99.90;;;;;;4935641;29;20488;-73
2021/11/02 20:28:50;;;;;;;0.90;0.77;;;7.70;99.90;;;;;;4935807;29;20612;-73
2021/11/02 20:31:17;;;;;;;0.90;0.80;;;7.70;99.90;;;;;;4935411;29;20472;-74
2021/11/02 20:33:43;;;;;;;2.20;0.90;;;7.60;99.90;;;;;;4935075;28;20495;-74
2021/11/02 20:36:13;;;;;;;1.13;0.80;;;7.60;99.90;;;;;;4940783;29;20463;-74
2021/11/02 20:38:43;;;;;;;0.70;0.70;;;7.70;99.90;;;;;;4935403;29;20493;-73
2021/11/02 20:41:21;;;;;;;2.10;0.97;;;7.70;99.90;;;;;;4935524;29;20522;-74
2021/11/02 20:43:54;;;;;;;2.30;0.90;;;7.70;99.90;;;;;;4935198;29;20492;-73
2021/11/02 20:46:24;;;;;;;0.93;0.90;;;7.70;99.90;;;;;;4933960;29;20462;-74
2021/11/02 20:48:49;;;;;;;2.20;0.80;;;7.70;99.90;;;;;;4935333;29;20470;-74